Time;durP1;ratioP1;P1;durP2;ratioP2;P2;SDS_P1;SDS_P2;PMS_P1;PMS_P2;Temp;Humidity;BMP_temperature;BMP_pressure;BME280_temperature;BME280_humidity;BME280_pressure;Samples;Min_cycle;Max_cycle;Signal;HPM_P1;HPM_P2
2021/08/06 00:01:31;;;;;;;;;;;19.50;91.10;;;;;;4315300;33;44320;-86
2021/08/06 00:04:07;;;;;;;;;;;19.50;91.30;;;;;;4315513;33;44161;-86
2021/08/06 00:06:42;;;;;;;;;;;19.40;91.30;;;;;;4315539;33;44041;-84
2021/08/06 00:09:21;;;;;;;;;;;19.40;91.30;;;;;;4315488;33;45780;-81
2021/08/06 00:11:57;;;;;;;;;;;19.40;91.40;;;;;;4315286;33;42907;-88
2021/08/06 00:14:33;;;;;;;;;;;19.30;91.50;;;;;;4315588;33;44173;-86
2021/08/06 00:17:11;;;;;;;;;;;19.30;91.50;;;;;;4316407;33;20014;-85
2021/08/06 00:19:47;;;;;;;;;;;19.30;91.50;;;;;;4315458;33;43836;-85
2021/08/06 00:22:17;;;;;;;;;;;19.30;91.50;;;;;;4315284;33;45807;-85
2021/08/06 00:24:58;;;;;;;;;;;19.30;91.50;;;;;;4315564;33;44219;-89
2021/08/06 00:27:35;;;;;;;;;;;19.30;91.60;;;;;;4315394;33;44611;-85
2021/08/06 00:30:03;;;;;;;;;;;19.30;91.60;;;;;;4315379;33;44827;-85
2021/08/06 00:32:35;;;;;;;;;;;19.20;91.70;;;;;;4314812;33;43029;-86
2021/08/06 00:35:08;;;;;;;;;;;19.20;91.70;;;;;;4315249;33;44747;-83
2021/08/06 00:37:42;;;;;;;;;;;19.20;91.70;;;;;;4316229;33;45417;-83
2021/08/06 00:40:12;;;;;;;;;;;19.20;91.80;;;;;;4315109;33;46057;-89
2021/08/06 00:42:43;;;;;;;;;;;19.20;91.80;;;;;;4315734;33;43492;-84
2021/08/06 00:45:16;;;;;;;;;;;19.20;91.80;;;;;;4315075;33;45570;-85
2021/08/06 00:47:47;;;;;;;;;;;19.20;91.90;;;;;;4315521;33;20010;-83
2021/08/06 00:50:15;;;;;;;;;;;19.10;91.90;;;;;;4303130;33;44797;-84
2021/08/06 00:52:45;;;;;;;;;;;19.20;91.90;;;;;;4314675;33;46076;-83
2021/08/06 00:55:13;;;;;;;;;;;19.20;91.90;;;;;;4316005;33;46038;-84
2021/08/06 00:57:42;;;;;;;;;;;19.20;91.90;;;;;;4315512;33;43374;-84
2021/08/06 01:00:21;;;;;;;;;;;19.20;92.00;;;;;;4314696;33;44350;-83
2021/08/06 01:02:55;;;;;;;;;;;19.10;92.00;;;;;;4314346;33;44671;-86
2021/08/06 01:05:30;;;;;;;;;;;19.20;92.00;;;;;;4315044;33;43306;-87
2021/08/06 01:08:18;;;;;;;;;;;19.20;92.00;;;;;;4314874;33;44638;-83
2021/08/06 01:10:56;;;;;;;;;;;19.20;92.00;;;;;;4316226;33;43994;-80
2021/08/06 01:13:43;;;;;;;;;;;19.20;92.00;;;;;;4315009;33;44773;-89
2021/08/06 01:16:14;;;;;;;;;;;19.10;92.00;;;;;;4314819;33;46294;-85
2021/08/06 01:18:50;;;;;;;;;;;19.10;92.00;;;;;;4316004;33;44303;-82
2021/08/06 01:21:24;;;;;;;;;;;19.20;92.10;;;;;;4314796;33;44991;-82
2021/08/06 01:24:03;;;;;;;;;;;19.20;92.10;;;;;;4317751;33;44557;-88
2021/08/06 01:26:33;;;;;;;;;;;19.20;92.20;;;;;;4317642;33;45812;-85
2021/08/06 01:29:13;;;;;;;;;;;19.20;92.10;;;;;;4317780;33;46023;-85
2021/08/06 01:31:43;;;;;;;;;;;19.10;92.10;;;;;;4318828;33;44684;-86
2021/08/06 01:34:16;;;;;;;;;;;19.10;92.20;;;;;;4317103;33;44604;-83
2021/08/06 01:36:43;;;;;;;;;;;19.10;92.30;;;;;;4317168;33;43494;-82
2021/08/06 01:39:14;;;;;;;;;;;19.10;92.30;;;;;;4317816;33;43325;-83
2021/08/06 01:42:00;;;;;;;;;;;19.10;92.40;;;;;;4317058;33;45632;-81
2021/08/06 01:44:39;;;;;;;;;;;19.10;92.40;;;;;;4317017;33;43942;-82
2021/08/06 01:47:38;;;;;;;;;;;19.00;92.50;;;;;;4317398;33;45840;-86
2021/08/06 01:50:13;;;;;;;;;;;19.00;92.60;;;;;;4308330;33;21632;-82
2021/08/06 01:52:47;;;;;;;;;;;19.00;92.60;;;;;;4318217;33;42737;-85
2021/08/06 01:55:18;;;;;;;;;;;19.00;92.70;;;;;;4318228;33;43578;-84
2021/08/06 01:57:49;;;;;;;;;;;19.10;92.70;;;;;;4317228;33;42812;-84
2021/08/06 02:00:22;;;;;;;;;;;19.10;92.80;;;;;;4318440;33;44238;-84
2021/08/06 02:02:53;;;;;;;;;;;19.10;92.80;;;;;;4317703;33;44885;-85
2021/08/06 02:05:35;;;;;;;;;;;19.00;92.80;;;;;;4317172;33;45040;-87
2021/08/06 02:08:10;;;;;;;;;;;19.00;92.80;;;;;;4317038;33;43786;-86
2021/08/06 02:10:40;;;;;;;;;;;19.00;92.90;;;;;;4317078;33;43879;-85
2021/08/06 02:13:07;;;;;;;;;;;19.00;92.90;;;;;;4316701;33;46062;-86
2021/08/06 02:15:39;;;;;;;;;;;19.00;93.20;;;;;;4317833;33;45666;-81
2021/08/06 02:18:16;;;;;;;;;;;19.00;93.00;;;;;;4318212;33;43216;-85
2021/08/06 02:20:49;;;;;;;;;;;19.00;93.00;;;;;;4317310;33;20002;-84
2021/08/06 02:23:26;;;;;;;;;;;19.00;93.00;;;;;;4316897;33;44767;-81
2021/08/06 02:25:56;;;;;;;;;;;19.00;93.10;;;;;;4317028;33;42558;-86
2021/08/06 02:28:37;;;;;;;;;;;18.90;93.10;;;;;;4316645;33;45661;-86
2021/08/06 02:31:13;;;;;;;;;;;18.90;93.10;;;;;;4316769;33;45611;-88
2021/08/06 02:33:41;;;;;;;;;;;18.90;93.20;;;;;;4316761;33;45722;-88
2021/08/06 02:36:11;;;;;;;;;;;19.00;93.30;;;;;;4316848;33;43769;-85
2021/08/06 02:38:46;;;;;;;;;;;19.00;93.30;;;;;;4316840;33;43810;-85
2021/08/06 02:41:16;;;;;;;;;;;19.00;93.30;;;;;;4316685;33;44837;-80
2021/08/06 02:43:52;;;;;;;;;;;18.90;93.30;;;;;;4316482;33;45964;-86
2021/08/06 02:46:22;;;;;;;;;;;18.90;93.40;;;;;;4316622;33;45739;-86
2021/08/06 02:48:58;;;;;;;;;;;18.90;93.40;;;;;;4317591;33;43308;-84
2021/08/06 02:51:28;;;;;;;;;;;18.90;93.40;;;;;;4318642;33;20041;-84
2021/08/06 02:54:06;;;;;;;;;;;18.90;93.40;;;;;;4316266;33;45566;-85
2021/08/06 02:56:44;;;;;;;;;;;19.00;93.50;;;;;;4316426;33;45784;-85
2021/08/06 02:59:11;;;;;;;;;;;19.00;93.50;;;;;;4316610;33;44325;-84
2021/08/06 03:01:44;;;;;;;;;;;18.90;93.50;;;;;;4315867;33;44591;-81
2021/08/06 03:04:19;;;;;;;;;;;18.90;93.50;;;;;;4317277;33;44828;-85
2021/08/06 03:06:55;;;;;;;;;;;18.90;93.60;;;;;;4315826;33;44081;-86
2021/08/06 03:09:25;;;;;;;;;;;18.90;93.60;;;;;;4315915;33;43015;-85
2021/08/06 03:11:58;;;;;;;;;;;18.90;93.60;;;;;;4316050;33;45716;-82
2021/08/06 03:14:36;;;;;;;;;;;18.90;93.70;;;;;;4316275;33;46117;-85
2021/08/06 03:17:08;;;;;;;;;;;18.90;93.70;;;;;;4316196;33;43675;-84
2021/08/06 03:19:46;;;;;;;;;;;18.80;93.70;;;;;;4316328;33;43173;-80
2021/08/06 03:22:13;;;;;;;;;;;18.80;93.80;;;;;;4315981;33;44471;-84
2021/08/06 03:24:49;;;;;;;;;;;18.80;93.80;;;;;;4315852;33;44165;-83
2021/08/06 03:27:21;;;;;;;;;;;18.80;93.80;;;;;;4316989;33;44086;-84
2021/08/06 03:29:56;;;;;;;;;;;18.80;93.90;;;;;;4317056;33;44163;-81
2021/08/06 03:32:35;;;;;;;;;;;18.80;93.90;;;;;;4315778;33;44442;-82
2021/08/06 03:35:13;;;;;;;;;;;18.80;93.90;;;;;;4315996;33;45900;-81
2021/08/06 03:37:52;;;;;;;;;;;18.80;94.00;;;;;;4315891;33;45804;-83
2021/08/06 03:40:28;;;;;;;;;;;18.80;94.00;;;;;;4315893;33;45684;-86
2021/08/06 03:43:04;;;;;;;;;;;18.80;94.10;;;;;;4315861;33;44819;-84
2021/08/06 03:45:36;;;;;;;;;;;18.70;94.10;;;;;;4315410;33;43938;-81
2021/08/06 03:48:05;;;;;;;;;;;18.70;94.10;;;;;;4315900;33;45102;-83
2021/08/06 03:50:42;;;;;;;;;;;18.70;94.10;;;;;;4316778;33;43354;-83
2021/08/06 03:53:15;;;;;;;;;;;18.70;94.20;;;;;;4316660;33;20359;-85
2021/08/06 03:55:48;;;;;;;;;;;18.70;94.20;;;;;;4315634;33;43604;-85
2021/08/06 03:58:21;;;;;;;;;;;18.70;94.20;;;;;;4315477;33;44216;-84
2021/08/06 04:00:56;;;;;;;;;;;18.70;94.20;;;;;;4316824;33;44630;-81
2021/08/06 04:03:31;;;;;;;;;;;18.70;94.20;;;;;;4314935;33;45721;-82
2021/08/06 04:06:04;;;;;;;;;;;18.70;94.30;;;;;;4315640;33;45247;-82
2021/08/06 04:08:42;;;;;;;;;;;18.70;94.30;;;;;;4314934;33;43893;-84
2021/08/06 04:11:13;;;;;;;;;;;18.70;94.30;;;;;;4315381;33;45519;-85
2021/08/06 04:13:40;;;;;;;;;;;18.60;94.30;;;;;;4315547;33;43173;-79
2021/08/06 04:16:16;;;;;;;;;;;18.60;94.40;;;;;;4316153;33;43642;-85
2021/08/06 04:18:50;;;;;;;;;;;18.60;94.40;;;;;;4315285;33;45249;-84
2021/08/06 04:21:29;;;;;;;;;;;18.60;94.40;;;;;;4316471;33;45353;-83
2021/08/06 04:24:08;;;;;;;;;;;18.60;94.40;;;;;;4316082;33;20406;-85
2021/08/06 04:26:41;;;;;;;;;;;18.60;94.40;;;;;;4315586;33;44920;-81
2021/08/06 04:29:15;;;;;;;;;;;18.60;94.50;;;;;;4315429;33;45756;-81
2021/08/06 04:31:54;;;;;;;;;;;18.60;94.50;;;;;;4315282;33;44324;-83
2021/08/06 04:34:21;;;;;;;;;;;18.60;94.50;;;;;;4315003;33;45782;-82
2021/08/06 04:36:53;;;;;;;;;;;18.60;94.50;;;;;;4315689;33;44627;-79
2021/08/06 04:39:28;;;;;;;;;;;18.60;94.50;;;;;;4314720;33;43809;-82
2021/08/06 04:42:01;;;;;;;;;;;18.60;94.60;;;;;;4315129;33;44546;-84
2021/08/06 04:44:42;;;;;;;;;;;18.60;94.60;;;;;;4314916;33;44336;-79
2021/08/06 04:47:17;;;;;;;;;;;18.60;94.60;;;;;;4315005;33;44280;-79
2021/08/06 04:49:55;;;;;;;;;;;18.60;94.60;;;;;;4314934;33;45896;-82
2021/08/06 04:52:31;;;;;;;;;;;18.60;94.60;;;;;;4315088;33;45107;-81
2021/08/06 04:55:10;;;;;;;;;;;18.60;94.60;;;;;;4315863;33;20006;-81
2021/08/06 04:57:45;;;;;;;;;;;18.60;94.60;;;;;;4314414;33;44524;-79
2021/08/06 05:00:22;;;;;;;;;;;18.50;94.60;;;;;;4314854;33;45120;-80
2021/08/06 05:02:57;;;;;;;;;;;18.60;94.70;;;;;;4314673;33;44339;-85
2021/08/06 05:05:24;;;;;;;;;;;18.50;94.70;;;;;;4315056;33;43074;-84
2021/08/06 05:07:58;;;;;;;;;;;18.60;94.70;;;;;;4314862;33;44177;-84
2021/08/06 05:10:36;;;;;;;;;;;18.50;94.70;;;;;;4314824;33;44970;-80
2021/08/06 05:13:08;;;;;;;;;;;18.50;94.70;;;;;;4314820;33;44665;-81
2021/08/06 05:15:40;;;;;;;;;;;18.50;94.70;;;;;;4314735;33;45579;-84
2021/08/06 05:18:13;;;;;;;;;;;18.50;94.70;;;;;;4314886;33;44795;-84
2021/08/06 05:20:51;;;;;;;;;;;18.60;94.80;;;;;;4314282;33;44254;-79
2021/08/06 05:23:26;;;;;;;;;;;18.50;94.80;;;;;;4314321;33;43006;-79
2021/08/06 05:26:04;;;;;;;;;;;18.60;94.80;;;;;;4316856;33;20474;-79
2021/08/06 05:28:31;;;;;;;;;;;18.60;94.80;;;;;;4314454;33;42926;-82
2021/08/06 05:31:06;;;;;;;;;;;18.50;94.80;;;;;;4314731;33;45148;-83
2021/08/06 05:33:41;;;;;;;;;;;18.60;94.80;;;;;;4315680;33;42967;-82
2021/08/06 05:36:19;;;;;;;;;;;18.60;94.90;;;;;;4315726;33;43948;-85
2021/08/06 05:38:52;;;;;;;;;;;18.60;94.80;;;;;;4314572;33;43606;-79
2021/08/06 05:41:30;;;;;;;;;;;18.60;94.90;;;;;;4314641;33;45679;-80
2021/08/06 05:43:57;;;;;;;;;;;18.60;94.90;;;;;;4314644;33;43910;-83
2021/08/06 05:46:25;;;;;;;;;;;18.60;94.90;;;;;;4314775;33;46047;-86
2021/08/06 05:48:57;;;;;;;;;;;18.60;94.90;;;;;;4314284;33;42626;-85
2021/08/06 05:51:24;;;;;;;;;;;18.60;94.90;;;;;;4314031;33;45421;-82
2021/08/06 05:53:52;;;;;;;;;;;18.60;94.90;;;;;;4315695;33;43916;-83
2021/08/06 05:56:20;;;;;;;;;;;18.60;94.90;;;;;;4314259;33;44180;-82
2021/08/06 05:58:54;;;;;;;;;;;18.60;94.90;;;;;;4315140;33;44179;-87
2021/08/06 06:01:21;;;;;;;;;;;18.60;94.90;;;;;;4315484;33;44743;-87
2021/08/06 06:03:48;;;;;;;;;;;18.60;95.00;;;;;;4314532;33;44854;-85
2021/08/06 06:06:21;;;;;;;;;;;18.60;95.00;;;;;;4314073;33;43150;-86
2021/08/06 06:08:55;;;;;;;;;;;18.60;95.00;;;;;;4314904;33;43822;-88
2021/08/06 06:11:23;;;;;;;;;;;18.60;95.00;;;;;;4316956;33;45735;-84
2021/08/06 06:13:50;;;;;;;;;;;18.60;95.00;;;;;;4316938;33;44288;-90
2021/08/06 06:16:17;;;;;;;;;;;18.60;95.00;;;;;;4317699;33;44974;-87
2021/08/06 06:18:44;;;;;;;;;;;18.60;94.90;;;;;;4318469;33;43993;-90
2021/08/06 06:21:11;;;;;;;;;;;18.60;94.80;;;;;;4317550;33;44066;-90
2021/08/06 06:23:38;;;;;;;;;;;18.60;94.80;;;;;;4316799;33;42977;-87
2021/08/06 06:26:06;;;;;;;;;;;18.70;94.80;;;;;;4317731;33;20002;-88
2021/08/06 06:28:33;;;;;;;;;;;18.70;94.70;;;;;;4317137;33;45229;-87
2021/08/06 06:31:01;;;;;;;;;;;18.70;94.70;;;;;;4317212;33;44710;-89
2021/08/06 06:33:28;;;;;;;;;;;18.70;94.70;;;;;;4316938;33;44530;-86
2021/08/06 06:35:55;;;;;;;;;;;18.60;94.60;;;;;;4318060;33;45759;-89
2021/08/06 06:38:22;;;;;;;;;;;18.70;94.60;;;;;;4316854;33;44049;-88
2021/08/06 06:40:49;;;;;;;;;;;18.70;94.60;;;;;;4316993;33;45702;-87
2021/08/06 06:43:17;;;;;;;;;;;18.70;94.60;;;;;;4317470;33;44792;-90
2021/08/06 06:45:44;;;;;;;;;;;18.60;94.50;;;;;;4317125;33;44594;-90
2021/08/06 06:48:11;;;;;;;;;;;18.70;94.50;;;;;;4316494;33;44738;-89
2021/08/06 06:50:40;;;;;;;;;;;18.60;94.50;;;;;;4317443;33;44178;-88
2021/08/06 06:53:10;;;;;;;;;;;18.70;94.50;;;;;;4316517;33;44602;-88
2021/08/06 06:55:37;;;;;;;;;;;18.70;94.50;;;;;;4317067;33;43499;-88
2021/08/06 06:58:05;;;;;;;;;;;18.70;94.50;;;;;;4316861;33;45694;-87
2021/08/06 07:00:32;;;;;;;;;;;18.60;94.50;;;;;;4316469;33;44299;-86
2021/08/06 07:03:00;;;;;;;;;;;18.70;94.60;;;;;;4316358;33;44789;-88
2021/08/06 07:05:30;;;;;;;;;;;18.70;94.60;;;;;;4316009;33;45530;-88
2021/08/06 07:07:57;;;;;;;;;;;18.60;94.50;;;;;;4316467;33;43501;-89
2021/08/06 07:10:24;;;;;;;;;;;18.70;94.60;;;;;;4316495;33;43314;-87
2021/08/06 07:12:51;;;;;;;;;;;18.70;94.60;;;;;;4316275;33;43757;-88
2021/08/06 07:15:24;;;;;;;;;;;18.60;94.60;;;;;;4315779;33;43269;-85
2021/08/06 07:17:51;;;;;;;;;;;18.60;94.70;;;;;;4316138;33;44062;-84
2021/08/06 07:20:24;;;;;;;;;;;18.70;94.80;;;;;;4315532;33;43484;-87
2021/08/06 07:22:51;;;;;;;;;;;18.60;94.80;;;;;;4315964;33;45021;-84
2021/08/06 07:25:18;;;;;;;;;;;18.60;94.80;;;;;;4315828;33;44410;-88
2021/08/06 07:27:46;;;;;;;;;;;18.60;94.80;;;;;;4315978;33;45350;-86
2021/08/06 07:30:14;;;;;;;;;;;18.60;94.90;;;;;;4315825;33;43829;-86
2021/08/06 07:32:44;;;;;;;;;;;18.60;94.90;;;;;;4315678;33;42377;-83
2021/08/06 07:35:11;;;;;;;;;;;18.70;95.00;;;;;;4316028;33;43851;-84
2021/08/06 07:37:40;;;;;;;;;;;18.70;95.00;;;;;;4316168;33;44726;-88
2021/08/06 07:40:15;;;;;;;;;;;18.70;95.00;;;;;;4317063;33;44660;-85
2021/08/06 07:42:45;;;;;;;;;;;18.70;95.10;;;;;;4316988;33;43641;-87
2021/08/06 07:45:15;;;;;;;;;;;18.60;95.00;;;;;;4315135;33;45759;-81
2021/08/06 07:47:43;;;;;;;;;;;18.60;95.10;;;;;;4315965;33;45722;-86
2021/08/06 07:50:15;;;;;;;;;;;18.70;95.10;;;;;;4316438;33;41936;-83
2021/08/06 07:52:43;;;;;;;;;;;18.60;95.10;;;;;;4316986;33;44640;-87
2021/08/06 07:55:12;;;;;;;;;;;18.60;95.10;;;;;;4315843;33;45421;-82
2021/08/06 07:57:43;;;;;;;;;;;18.60;95.10;;;;;;4316462;33;20009;-87
2021/08/06 08:00:16;;;;;;;;;;;18.60;95.10;;;;;;4315883;33;45939;-84
2021/08/06 08:02:44;;;;;;;;;;;18.60;95.20;;;;;;4315484;33;43473;-86
2021/08/06 08:05:20;;;;;;;;;;;18.60;95.20;;;;;;4315387;33;43055;-82
2021/08/06 08:07:50;;;;;;;;;;;18.60;95.20;;;;;;4315528;33;43925;-82
2021/08/06 08:10:22;;;;;;;;;;;18.60;95.20;;;;;;4316817;33;46061;-87
2021/08/06 08:13:07;;;;;;;;;;;18.60;95.20;;;;;;4315890;33;44858;-86
2021/08/06 08:15:40;;;;;;;;;;;18.70;95.20;;;;;;4315591;33;44947;-85
2021/08/06 08:18:13;;;;;;;;;;;18.70;95.20;;;;;;4315460;33;44740;-87
2021/08/06 08:20:43;;;;;;;;;;;18.60;95.20;;;;;;4315462;33;45267;-83
2021/08/06 08:23:16;;;;;;;;;;;18.60;95.10;;;;;;4315114;33;45499;-86
2021/08/06 08:25:57;;;;;;;;;;;18.60;95.00;;;;;;4315359;33;44204;-86
2021/08/06 08:28:30;;;;;;;;;;;18.60;94.90;;;;;;4317595;33;20010;-88
2021/08/06 08:31:08;;;;;;;;;;;18.60;94.90;;;;;;4315276;33;43958;-89
2021/08/06 08:33:47;;;;;;;;;;;18.60;94.90;;;;;;4315123;33;44470;-88
2021/08/06 08:36:19;;;;;;;;;;;18.60;94.90;;;;;;4315408;33;45776;-88
2021/08/06 08:38:47;;;;;;;;;;;18.60;94.90;;;;;;4315199;33;42656;-85
2021/08/06 08:41:14;;;;;;;;;;;18.60;94.90;;;;;;4315022;33;44816;-84
2021/08/06 08:43:43;;;;;;;;;;;18.60;94.90;;;;;;4315574;33;43992;-83
2021/08/06 08:46:17;;;;;;;;;;;18.60;94.90;;;;;;4315293;33;42119;-83
2021/08/06 08:48:54;;;;;;;;;;;18.60;94.90;;;;;;4316162;33;44537;-80
2021/08/06 08:51:29;;;;;;;;;;;18.60;94.90;;;;;;4315007;33;44889;-81
2021/08/06 08:54:00;;;;;;;;;;;18.60;94.90;;;;;;4315690;33;44216;-88
2021/08/06 08:56:35;;;;;;;;;;;18.60;94.90;;;;;;4314680;33;45752;-82
2021/08/06 08:59:08;;;;;;;;;;;18.60;94.80;;;;;;4315467;33;19995;-84
2021/08/06 09:01:43;;;;;;;;;;;18.60;94.80;;;;;;4315721;33;43932;-84
2021/08/06 09:04:20;;;;;;;;;;;18.60;94.90;;;;;;4314673;33;44121;-81
2021/08/06 09:06:48;;;;;;;;;;;18.60;94.90;;;;;;4315315;33;45816;-81
2021/08/06 09:09:29;;;;;;;;;;;18.60;94.90;;;;;;4315684;33;42623;-86
2021/08/06 09:12:19;;;;;;;;;;;18.60;94.90;;;;;;4315805;33;45787;-84
2021/08/06 09:14:57;;;;;;;;;;;18.60;94.90;;;;;;4314797;33;45719;-83
2021/08/06 09:17:38;;;;;;;;;;;18.60;95.00;;;;;;4315896;33;44640;-84
2021/08/06 09:20:16;;;;;;;;;;;18.60;95.10;;;;;;4316061;33;45222;-83
2021/08/06 09:22:56;;;;;;;;;;;18.60;95.10;;;;;;4314567;33;45157;-87
2021/08/06 09:25:39;;;;;;;;;;;18.60;95.10;;;;;;4314580;33;44010;-80
2021/08/06 09:28:15;;;;;;;;;;;18.60;95.10;;;;;;4315518;33;43469;-85
2021/08/06 09:30:50;;;;;;;;;;;18.70;95.10;;;;;;4315806;33;43942;-86
2021/08/06 09:33:40;;;;;;;;;;;18.70;95.10;;;;;;4314637;33;45545;-83
2021/08/06 09:36:10;;;;;;;;;;;18.70;95.10;;;;;;4314771;33;44319;-79
2021/08/06 09:38:40;;;;;;;;;;;18.70;95.10;;;;;;4314428;33;43214;-84
2021/08/06 09:41:16;;;;;;;;;;;18.70;95.10;;;;;;4315833;33;43474;-80
2021/08/06 09:43:49;;;;;;;;;;;18.80;95.10;;;;;;4315190;33;44332;-82
2021/08/06 09:46:34;;;;;;;;;;;18.80;95.10;;;;;;4317444;33;43192;-85
2021/08/06 09:49:15;;;;;;;;;;;18.80;95.10;;;;;;4318704;33;45085;-80
2021/08/06 09:51:53;;;;;;;;;;;18.80;95.10;;;;;;4317594;33;41948;-86
2021/08/06 09:54:24;;;;;;;;;;;18.80;95.00;;;;;;4317430;33;44221;-83
2021/08/06 09:57:12;;;;;;;;;;;18.80;95.00;;;;;;4316974;33;44772;-86
2021/08/06 09:59:54;;;;;;;;;;;18.80;94.90;;;;;;4318188;33;20348;-82
2021/08/06 10:02:30;;;;;;;;;;;18.80;94.90;;;;;;4318056;33;45221;-80
2021/08/06 10:05:06;;;;;;;;;;;18.80;94.90;;;;;;4318199;33;44287;-80
2021/08/06 10:07:49;;;;;;;;;;;18.80;94.90;;;;;;4317994;33;43772;-85
2021/08/06 10:10:25;;;;;;;;;;;18.80;94.90;;;;;;4317222;33;44215;-83
2021/08/06 10:13:03;;;;;;;;;;;18.80;94.90;;;;;;4317184;33;45161;-83
2021/08/06 10:15:36;;;;;;;;;;;18.80;94.90;;;;;;4317088;33;45622;-84
2021/08/06 10:18:11;;;;;;;;;;;18.80;94.90;;;;;;4317902;33;44279;-80
2021/08/06 10:20:41;;;;;;;;;;;18.80;94.90;;;;;;4317116;33;44560;-80
2021/08/06 10:23:16;;;;;;;;;;;18.80;95.00;;;;;;4316928;33;43821;-81
2021/08/06 10:25:55;;;;;;;;;;;18.80;94.90;;;;;;4316473;33;42815;-86
2021/08/06 10:28:33;;;;;;;;;;;18.80;94.90;;;;;;4316895;33;46180;-87
2021/08/06 10:31:20;;;;;;;;;;;18.80;94.90;;;;;;4317680;33;20008;-86
2021/08/06 10:34:06;;;;;;;;;;;18.80;94.90;;;;;;4316870;33;43917;-85
2021/08/06 10:36:48;;;;;;;;;;;18.80;94.90;;;;;;4316811;33;44433;-84
2021/08/06 10:39:33;;;;;;;;;;;18.80;94.90;;;;;;4316804;33;42966;-83
2021/08/06 10:42:06;;;;;;;;;;;18.80;94.80;;;;;;4316326;33;44274;-81
2021/08/06 10:45:05;;;;;;;;;;;18.80;94.60;;;;;;4317309;33;42514;-81
2021/08/06 10:48:09;;;;;;;;;;;18.80;94.70;;;;;;4317349;33;44702;-83
2021/08/06 10:50:47;;;;;;;;;;;18.80;94.60;;;;;;4294080;33;44824;-82
2021/08/06 10:53:19;;;;;;;;;;;18.80;94.40;;;;;;4316231;33;42506;-87
2021/08/06 10:56:14;;;;;;;;;;;18.80;94.30;;;;;;4315632;33;45992;-80
2021/08/06 10:58:55;;;;;;;;;;;18.80;94.40;;;;;;4317607;33;43275;-81
2021/08/06 11:01:45;;;;;;;;;;;18.80;94.50;;;;;;4317917;33;19998;-87
2021/08/06 11:04:35;;;;;;;;;;;18.80;94.50;;;;;;4316719;33;43165;-82
2021/08/06 11:07:02;;;;;;;;;;;18.80;94.40;;;;;;4317426;33;46001;-80
2021/08/06 11:09:43;;;;;;;;;;;18.90;94.40;;;;;;4315929;33;44378;-81
2021/08/06 11:12:15;;;;;;;;;;;18.90;94.40;;;;;;4315945;33;44311;-80
2021/08/06 11:14:51;;;;;;;;;;;18.90;94.30;;;;;;4316152;33;42925;-85
2021/08/06 11:17:53;;;;;;;;;;;18.90;94.20;;;;;;4316297;33;43246;-82
2021/08/06 11:20:26;;;;;;;;;;;18.90;94.30;;;;;;4316162;33;45294;-85
2021/08/06 11:23:09;;;;;;;;;;;18.90;94.20;;;;;;4315945;33;42751;-85
2021/08/06 11:25:37;;;;;;;;;;;18.90;94.10;;;;;;4316211;33;43192;-80
2021/08/06 11:28:12;;;;;;;;;;;18.90;94.00;;;;;;4316138;33;42639;-84
2021/08/06 11:30:40;;;;;;;;;;;18.90;94.00;;;;;;4317260;33;43405;-84
2021/08/06 11:33:20;;;;;;;;;;;18.90;93.90;;;;;;4317175;33;45783;-80
2021/08/06 11:35:50;;;;;;;;;;;18.90;94.10;;;;;;4316093;33;43708;-88
2021/08/06 11:38:23;;;;;;;;;;;18.90;94.10;;;;;;4315515;33;44264;-80
2021/08/06 11:40:57;;;;;;;;;;;18.90;94.10;;;;;;4315917;33;46277;-84
2021/08/06 11:43:39;;;;;;;;;;;19.00;94.00;;;;;;4316587;33;43266;-81
2021/08/06 11:46:11;;;;;;;;;;;19.00;94.10;;;;;;4315812;33;42746;-81
2021/08/06 11:48:48;;;;;;;;;;;19.00;94.00;;;;;;4315513;33;43016;-83
2021/08/06 11:51:24;;;;;;;;;;;19.00;94.00;;;;;;4315840;33;45260;-79
2021/08/06 11:53:54;;;;;;;;;;;19.10;94.00;;;;;;4316856;33;46210;-86
2021/08/06 11:56:29;;;;;;;;;;;19.10;94.00;;;;;;4315721;33;44574;-85
2021/08/06 11:58:56;;;;;;;;;;;19.20;94.00;;;;;;4316927;33;44140;-82
2021/08/06 12:01:29;;;;;;;;;;;19.10;94.10;;;;;;4315320;33;43334;-80
2021/08/06 12:03:59;;;;;;;;;;;19.20;93.80;;;;;;4315610;33;45530;-83
2021/08/06 12:06:30;;;;;;;;;;;19.20;93.80;;;;;;4316204;33;43893;-82
2021/08/06 12:09:08;;;;;;;;;;;19.30;93.80;;;;;;4315358;33;43727;-81
2021/08/06 12:11:47;;;;;;;;;;;19.30;93.80;;;;;;4315568;33;46037;-81
2021/08/06 12:14:34;;;;;;;;;;;19.30;93.70;;;;;;4315542;33;45729;-80
2021/08/06 12:17:17;;;;;;;;;;;19.30;93.70;;;;;;4315228;33;43991;-80
2021/08/06 12:19:47;;;;;;;;;;;19.30;93.70;;;;;;4316156;33;42317;-83
2021/08/06 12:22:20;;;;;;;;;;;19.30;93.60;;;;;;4315489;33;45572;-80
2021/08/06 12:24:53;;;;;;;;;;;19.30;93.90;;;;;;4314863;33;43471;-84
2021/08/06 12:27:27;;;;;;;;;;;19.40;93.60;;;;;;4315309;33;43221;-81
2021/08/06 12:30:16;;;;;;;;;;;19.40;93.60;;;;;;4315982;33;43353;-80
2021/08/06 12:32:46;;;;;;;;;;;19.40;93.50;;;;;;4314550;33;44750;-83
2021/08/06 12:35:24;;;;;;;;;;;19.40;93.50;;;;;;4316299;33;43894;-83
2021/08/06 12:38:02;;;;;;;;;;;19.50;93.40;;;;;;4316124;33;42862;-81
2021/08/06 12:40:47;;;;;;;;;;;19.50;93.40;;;;;;4315280;33;44096;-81
2021/08/06 12:43:20;;;;;;;;;;;19.50;93.40;;;;;;4315087;33;46017;-85
2021/08/06 12:46:09;;;;;;;;;;;19.50;93.20;;;;;;4314988;33;44400;-82
2021/08/06 12:48:56;;;;;;;;;;;19.50;93.20;;;;;;4316139;33;43819;-84
2021/08/06 12:51:33;;;;;;;;;;;19.40;93.20;;;;;;4308031;33;43931;-79
2021/08/06 12:54:22;;;;;;;;;;;19.40;93.30;;;;;;4314935;33;44006;-80
2021/08/06 12:56:59;;;;;;;;;;;19.40;93.10;;;;;;4314797;33;43971;-79
2021/08/06 12:59:26;;;;;;;;;;;19.40;93.30;;;;;;4314893;33;42773;-79
2021/08/06 13:01:53;;;;;;;;;;;19.40;93.30;;;;;;4314574;33;43917;-86
2021/08/06 13:04:35;;;;;;;;;;;19.40;93.30;;;;;;4315552;33;42598;-86
2021/08/06 13:07:14;;;;;;;;;;;19.50;93.30;;;;;;4316259;33;20002;-86
2021/08/06 13:09:55;;;;;;;;;;;19.50;93.30;;;;;;4314734;33;44751;-81
2021/08/06 13:12:33;;;;;;;;;;;19.50;93.30;;;;;;4314865;33;45115;-81
2021/08/06 13:15:08;;;;;;;;;;;19.50;93.30;;;;;;4315957;33;44003;-80
2021/08/06 13:17:41;;;;;;;;;;;19.50;93.30;;;;;;4315958;33;43386;-83
2021/08/06 13:20:14;;;;;;;;;;;19.50;93.10;;;;;;4317444;33;44028;-82
2021/08/06 13:22:44;;;;;;;;;;;19.60;93.20;;;;;;4318872;33;42789;-79
2021/08/06 13:25:19;;;;;;;;;;;19.60;93.20;;;;;;4317919;33;43478;-84
2021/08/06 13:27:52;;;;;;;;;;;19.60;93.00;;;;;;4317506;33;44642;-80
2021/08/06 13:30:30;;;;;;;;;;;19.70;92.90;;;;;;4318443;33;42666;-81
2021/08/06 13:33:04;;;;;;;;;;;19.70;93.00;;;;;;4317884;33;43919;-80
2021/08/06 13:35:39;;;;;;;;;;;19.70;92.80;;;;;;4318770;33;43323;-81
2021/08/06 13:38:10;;;;;;;;;;;19.70;92.90;;;;;;4317582;33;43891;-83
2021/08/06 13:40:40;;;;;;;;;;;19.80;93.20;;;;;;4317719;33;43765;-87
2021/08/06 13:43:18;;;;;;;;;;;19.80;92.90;;;;;;4317597;33;44087;-84
2021/08/06 13:45:46;;;;;;;;;;;19.90;92.90;;;;;;4317549;33;44147;-84
2021/08/06 13:48:24;;;;;;;;;;;19.90;92.80;;;;;;4318139;33;43557;-82
2021/08/06 13:51:02;;;;;;;;;;;19.90;92.70;;;;;;4318589;33;43891;-81
2021/08/06 13:53:34;;;;;;;;;;;20.00;92.60;;;;;;4317226;33;42970;-82
2021/08/06 13:56:01;;;;;;;;;;;20.00;92.60;;;;;;4316946;33;44372;-79
2021/08/06 13:58:34;;;;;;;;;;;20.00;92.60;;;;;;4316859;33;45039;-80
2021/08/06 14:01:02;;;;;;;;;;;20.00;92.50;;;;;;4317342;33;44197;-84
2021/08/06 14:03:35;;;;;;;;;;;20.00;92.60;;;;;;4316978;33;42390;-79
2021/08/06 14:06:12;;;;;;;;;;;20.00;92.60;;;;;;4317075;33;42734;-79
2021/08/06 14:08:42;;;;;;;;;;;20.00;92.60;;;;;;4318954;33;20010;-85
2021/08/06 14:11:18;;;;;;;;;;;20.00;92.30;;;;;;4317378;33;43301;-82
2021/08/06 14:13:45;;;;;;;;;;;20.00;92.30;;;;;;4317036;33;45508;-79
2021/08/06 14:16:21;;;;;;;;;;;19.90;92.40;;;;;;4316796;33;43863;-80
2021/08/06 14:18:54;;;;;;;;;;;19.90;92.40;;;;;;4318043;33;45175;-81
2021/08/06 14:21:26;;;;;;;;;;;20.00;92.60;;;;;;4318062;33;44534;-81
2021/08/06 14:23:59;;;;;;;;;;;19.90;92.50;;;;;;4317093;33;43837;-81
2021/08/06 14:26:26;;;;;;;;;;;19.90;92.50;;;;;;4316870;33;43909;-79
2021/08/06 14:28:59;;;;;;;;;;;20.00;92.40;;;;;;4317500;33;43178;-79
2021/08/06 14:31:37;;;;;;;;;;;19.90;92.50;;;;;;4317290;33;42998;-81
2021/08/06 14:34:05;;;;;;;;;;;19.90;92.50;;;;;;4318045;33;45215;-82
2021/08/06 14:36:40;;;;;;;;;;;19.90;92.60;;;;;;4316796;33;44237;-85
2021/08/06 14:39:17;;;;;;;;;;;19.90;92.50;;;;;;4318562;33;20010;-87
2021/08/06 14:41:56;;;;;;;;;;;19.90;92.50;;;;;;4316932;33;44390;-83
2021/08/06 14:44:23;;;;;;;;;;;19.90;92.50;;;;;;4317122;33;44812;-84
2021/08/06 14:46:55;;;;;;;;;;;19.90;92.60;;;;;;4316682;33;44008;-80
2021/08/06 14:49:31;;;;;;;;;;;19.90;92.60;;;;;;4317535;33;44139;-82
2021/08/06 14:52:09;;;;;;;;;;;19.90;92.50;;;;;;4316293;33;43833;-84
2021/08/06 14:54:44;;;;;;;;;;;19.90;92.60;;;;;;4316612;33;44727;-86
2021/08/06 14:57:19;;;;;;;;;;;19.90;92.60;;;;;;4317512;33;44737;-82